sensor_id;sensor_type;location;lat;lon;timestamp;temperature;humidity
36280;DHT22;22317;47.936;12.742;2023-02-28T00:00:40;-1.90;48.20
36280;DHT22;22317;47.936;12.742;2023-02-28T00:03:06;-1.90;48.10
36280;DHT22;22317;47.936;12.742;2023-02-28T00:05:32;-1.90;48.20
36280;DHT22;22317;47.936;12.742;2023-02-28T00:07:57;-1.80;48.30
36280;DHT22;22317;47.936;12.742;2023-02-28T00:10:26;-1.90;48.30
36280;DHT22;22317;47.936;12.742;2023-02-28T00:12:53;-1.90;48.30
36280;DHT22;22317;47.936;12.742;2023-02-28T00:15:20;-1.90;48.30
36280;DHT22;22317;47.936;12.742;2023-02-28T00:17:46;-1.90;48.40
36280;DHT22;22317;47.936;12.742;2023-02-28T00:20:13;-1.80;48.50
36280;DHT22;22317;47.936;12.742;2023-02-28T00:22:44;-1.90;48.40
36280;DHT22;22317;47.936;12.742;2023-02-28T00:25:13;-2.00;48.30
36280;DHT22;22317;47.936;12.742;2023-02-28T00:27:39;-1.90;48.50
36280;DHT22;22317;47.936;12.742;2023-02-28T00:30:08;-1.90;48.50
36280;DHT22;22317;47.936;12.742;2023-02-28T00:32:36;-2.00;48.30
36280;DHT22;22317;47.936;12.742;2023-02-28T00:35:04;-2.00;48.40
36280;DHT22;22317;47.936;12.742;2023-02-28T00:37:29;-2.00;48.50
36280;DHT22;22317;47.936;12.742;2023-02-28T00:39:56;-2.00;48.50
36280;DHT22;22317;47.936;12.742;2023-02-28T00:42:22;-2.00;48.40
36280;DHT22;22317;47.936;12.742;2023-02-28T00:44:48;-2.10;48.40
36280;DHT22;22317;47.936;12.742;2023-02-28T00:47:14;-2.10;48.50
36280;DHT22;22317;47.936;12.742;2023-02-28T00:49:40;-2.10;48.50
36280;DHT22;22317;47.936;12.742;2023-02-28T00:52:05;-2.10;48.60
36280;DHT22;22317;47.936;12.742;2023-02-28T00:54:31;-2.10;48.60
36280;DHT22;22317;47.936;12.742;2023-02-28T00:56:57;-2.20;48.60
36280;DHT22;22317;47.936;12.742;2023-02-28T00:59:24;-2.20;48.70
36280;DHT22;22317;47.936;12.742;2023-02-28T01:01:50;-2.20;48.70
36280;DHT22;22317;47.936;12.742;2023-02-28T01:04:16;-2.10;48.80
36280;DHT22;22317;47.936;12.742;2023-02-28T01:06:43;-2.20;48.80
36280;DHT22;22317;47.936;12.742;2023-02-28T01:09:10;-2.30;48.80
36280;DHT22;22317;47.936;12.742;2023-02-28T01:11:36;-2.30;48.80
36280;DHT22;22317;47.936;12.742;2023-02-28T01:14:03;-2.40;48.80
36280;DHT22;22317;47.936;12.742;2023-02-28T01:16:30;-2.40;49.00
36280;DHT22;22317;47.936;12.742;2023-02-28T01:18:56;-2.40;49.00
36280;DHT22;22317;47.936;12.742;2023-02-28T01:21:23;-2.40;49.00
36280;DHT22;22317;47.936;12.742;2023-02-28T01:23:49;-2.40;49.10
36280;DHT22;22317;47.936;12.742;2023-02-28T01:26:22;-2.50;49.20
36280;DHT22;22317;47.936;12.742;2023-02-28T01:28:49;-2.50;49.30
36280;DHT22;22317;47.936;12.742;2023-02-28T01:31:16;-2.50;49.30
36280;DHT22;22317;47.936;12.742;2023-02-28T01:33:42;-1.90;49.70
36280;DHT22;22317;47.936;12.742;2023-02-28T01:36:25;-2.50;49.40
36280;DHT22;22317;47.936;12.742;2023-02-28T01:38:51;-2.50;49.50
36280;DHT22;22317;47.936;12.742;2023-02-28T01:41:25;-2.50;49.50
36280;DHT22;22317;47.936;12.742;2023-02-28T01:44:00;-2.50;49.60
36280;DHT22;22317;47.936;12.742;2023-02-28T01:46:31;-2.50;49.50
36280;DHT22;22317;47.936;12.742;2023-02-28T01:49:02;-2.60;49.50
36280;DHT22;22317;47.936;12.742;2023-02-28T01:51:49;-2.60;49.50
36280;DHT22;22317;47.936;12.742;2023-02-28T01:54:27;-2.60;49.70
36280;DHT22;22317;47.936;12.742;2023-02-28T01:56:58;-2.60;49.70
36280;DHT22;22317;47.936;12.742;2023-02-28T01:59:35;-2.60;49.80
36280;DHT22;22317;47.936;12.742;2023-02-28T02:02:03;-2.60;50.00
36280;DHT22;22317;47.936;12.742;2023-02-28T02:04:34;-2.60;50.00
36280;DHT22;22317;47.936;12.742;2023-02-28T02:07:02;-2.60;50.00
36280;DHT22;22317;47.936;12.742;2023-02-28T02:09:28;-2.60;49.90
36280;DHT22;22317;47.936;12.742;2023-02-28T02:11:55;-2.60;50.00
36280;DHT22;22317;47.936;12.742;2023-02-28T02:14:43;-2.60;50.00
36280;DHT22;22317;47.936;12.742;2023-02-28T02:17:41;-2.60;50.20
36280;DHT22;22317;47.936;12.742;2023-02-28T02:21:02;-2.60;50.20
36280;DHT22;22317;47.936;12.742;2023-02-28T02:37:38;-2.70;50.30
36280;DHT22;22317;47.936;12.742;2023-02-28T02:40:25;-2.70;50.40
36280;DHT22;22317;47.936;12.742;2023-02-28T02:43:12;-2.70;50.50
36280;DHT22;22317;47.936;12.742;2023-02-28T02:45:52;-2.70;50.50
36280;DHT22;22317;47.936;12.742;2023-02-28T02:48:29;-2.70;50.50
36280;DHT22;22317;47.936;12.742;2023-02-28T02:51:03;-2.70;50.50
36280;DHT22;22317;47.936;12.742;2023-02-28T02:53:35;-2.70;50.50
36280;DHT22;22317;47.936;12.742;2023-02-28T02:56:03;-2.60;50.60
36280;DHT22;22317;47.936;12.742;2023-02-28T02:58:37;-2.60;50.60
36280;DHT22;22317;47.936;12.742;2023-02-28T03:01:14;-2.50;50.60
36280;DHT22;22317;47.936;12.742;2023-02-28T03:03:41;-2.60;50.50
36280;DHT22;22317;47.936;12.742;2023-02-28T03:06:08;-2.60;50.40
36280;DHT22;22317;47.936;12.742;2023-02-28T03:08:36;-2.60;50.40
36280;DHT22;22317;47.936;12.742;2023-02-28T03:11:05;-2.60;50.40
36280;DHT22;22317;47.936;12.742;2023-02-28T03:19:35;-2.80;50.20
36280;DHT22;22317;47.936;12.742;2023-02-28T03:30:59;-3.00;50.00
36280;DHT22;22317;47.936;12.742;2023-02-28T03:33:42;-1.40;50.90
36280;DHT22;22317;47.936;12.742;2023-02-28T03:36:13;-3.10;50.10
36280;DHT22;22317;47.936;12.742;2023-02-28T03:38:54;-3.20;50.20
36280;DHT22;22317;47.936;12.742;2023-02-28T03:41:32;-3.20;50.40
36280;DHT22;22317;47.936;12.742;2023-02-28T03:44:15;-3.20;50.40
36280;DHT22;22317;47.936;12.742;2023-02-28T03:47:02;-3.20;50.40
36280;DHT22;22317;47.936;12.742;2023-02-28T03:49:35;-3.30;50.40
36280;DHT22;22317;47.936;12.742;2023-02-28T03:52:04;-3.30;50.30
36280;DHT22;22317;47.936;12.742;2023-02-28T03:54:35;-3.30;50.30
36280;DHT22;22317;47.936;12.742;2023-02-28T03:57:20;-3.30;50.20
36280;DHT22;22317;47.936;12.742;2023-02-28T03:59:55;-3.30;50.30
36280;DHT22;22317;47.936;12.742;2023-02-28T04:02:23;-3.40;50.20
36280;DHT22;22317;47.936;12.742;2023-02-28T04:04:49;-3.40;50.30
36280;DHT22;22317;47.936;12.742;2023-02-28T04:07:16;-3.40;50.50
36280;DHT22;22317;47.936;12.742;2023-02-28T04:09:42;-3.50;52.30
36280;DHT22;22317;47.936;12.742;2023-02-28T04:12:08;-3.50;50.40
36280;DHT22;22317;47.936;12.742;2023-02-28T04:14:34;-3.50;50.30
36280;DHT22;22317;47.936;12.742;2023-02-28T04:17:00;-3.50;50.40
36280;DHT22;22317;47.936;12.742;2023-02-28T04:19:25;-3.50;50.40
36280;DHT22;22317;47.936;12.742;2023-02-28T04:21:53;-3.50;50.40
36280;DHT22;22317;47.936;12.742;2023-02-28T04:24:21;-3.60;50.40
36280;DHT22;22317;47.936;12.742;2023-02-28T04:26:50;-3.60;50.40
36280;DHT22;22317;47.936;12.742;2023-02-28T04:29:28;-3.60;50.40
36280;DHT22;22317;47.936;12.742;2023-02-28T04:31:55;-3.60;50.40
36280;DHT22;22317;47.936;12.742;2023-02-28T04:34:23;-3.70;50.30
36280;DHT22;22317;47.936;12.742;2023-02-28T04:36:50;-3.70;50.30
36280;DHT22;22317;47.936;12.742;2023-02-28T04:39:16;-3.80;50.30
36280;DHT22;22317;47.936;12.742;2023-02-28T04:41:44;-3.80;50.30
36280;DHT22;22317;47.936;12.742;2023-02-28T04:44:10;-3.90;50.30
36280;DHT22;22317;47.936;12.742;2023-02-28T04:46:37;-3.90;50.40
36280;DHT22;22317;47.936;12.742;2023-02-28T04:49:02;-3.90;50.40
36280;DHT22;22317;47.936;12.742;2023-02-28T04:51:29;-3.90;50.50
36280;DHT22;22317;47.936;12.742;2023-02-28T04:53:54;-3.80;50.60
36280;DHT22;22317;47.936;12.742;2023-02-28T04:56:21;-4.00;50.60
36280;DHT22;22317;47.936;12.742;2023-02-28T04:58:47;-4.00;50.60
36280;DHT22;22317;47.936;12.742;2023-02-28T05:03:51;-4.10;50.70
36280;DHT22;22317;47.936;12.742;2023-02-28T05:06:17;-4.10;50.80
36280;DHT22;22317;47.936;12.742;2023-02-28T05:08:43;-4.10;50.80
36280;DHT22;22317;47.936;12.742;2023-02-28T05:11:28;-4.10;50.80
36280;DHT22;22317;47.936;12.742;2023-02-28T05:13:55;-4.20;50.80
36280;DHT22;22317;47.936;12.742;2023-02-28T05:16:21;-4.20;50.90
36280;DHT22;22317;47.936;12.742;2023-02-28T05:18:47;-4.30;50.90
36280;DHT22;22317;47.936;12.742;2023-02-28T05:23:52;-4.20;51.20
36280;DHT22;22317;47.936;12.742;2023-02-28T05:26:19;-4.30;51.10
36280;DHT22;22317;47.936;12.742;2023-02-28T05:28:45;-4.30;51.10
36280;DHT22;22317;47.936;12.742;2023-02-28T05:31:11;-4.20;51.20
36280;DHT22;22317;47.936;12.742;2023-02-28T05:33:37;-4.30;51.10
36280;DHT22;22317;47.936;12.742;2023-02-28T05:36:03;-4.40;51.10
36280;DHT22;22317;47.936;12.742;2023-02-28T05:38:30;-4.40;51.00
36280;DHT22;22317;47.936;12.742;2023-02-28T05:40:56;-4.50;51.00
36280;DHT22;22317;47.936;12.742;2023-02-28T05:43:22;-4.40;51.10
36280;DHT22;22317;47.936;12.742;2023-02-28T05:45:48;-4.40;51.10
36280;DHT22;22317;47.936;12.742;2023-02-28T05:48:14;-4.50;51.20
36280;DHT22;22317;47.936;12.742;2023-02-28T05:50:40;-4.60;51.20
36280;DHT22;22317;47.936;12.742;2023-02-28T05:53:08;-4.60;51.20
36280;DHT22;22317;47.936;12.742;2023-02-28T05:55:33;-4.70;51.40
36280;DHT22;22317;47.936;12.742;2023-02-28T05:58:01;-4.70;51.60
36280;DHT22;22317;47.936;12.742;2023-02-28T06:00:27;-4.70;52.20
36280;DHT22;22317;47.936;12.742;2023-02-28T06:02:53;-4.70;51.60
36280;DHT22;22317;47.936;12.742;2023-02-28T06:05:22;-4.70;51.70
36280;DHT22;22317;47.936;12.742;2023-02-28T06:07:47;-4.70;51.80
36280;DHT22;22317;47.936;12.742;2023-02-28T06:10:14;-4.70;51.80
36280;DHT22;22317;47.936;12.742;2023-02-28T06:12:40;-4.70;51.90
36280;DHT22;22317;47.936;12.742;2023-02-28T06:15:11;-4.70;52.00
36280;DHT22;22317;47.936;12.742;2023-02-28T06:17:37;-4.70;52.00
36280;DHT22;22317;47.936;12.742;2023-02-28T06:20:04;-4.70;52.10
36280;DHT22;22317;47.936;12.742;2023-02-28T06:22:30;-4.70;52.10
36280;DHT22;22317;47.936;12.742;2023-02-28T06:24:56;-4.70;52.10
36280;DHT22;22317;47.936;12.742;2023-02-28T06:27:23;-4.70;52.10
36280;DHT22;22317;47.936;12.742;2023-02-28T06:29:53;-4.60;52.20
36280;DHT22;22317;47.936;12.742;2023-02-28T06:32:19;-4.60;52.30
36280;DHT22;22317;47.936;12.742;2023-02-28T06:34:45;-4.60;52.20
36280;DHT22;22317;47.936;12.742;2023-02-28T06:37:11;-4.60;52.30
36280;DHT22;22317;47.936;12.742;2023-02-28T06:39:36;-4.60;52.20
36280;DHT22;22317;47.936;12.742;2023-02-28T06:42:02;-4.60;52.30
36280;DHT22;22317;47.936;12.742;2023-02-28T06:44:28;-4.40;52.50
36280;DHT22;22317;47.936;12.742;2023-02-28T06:47:04;-4.40;52.40
36280;DHT22;22317;47.936;12.742;2023-02-28T06:49:31;-4.40;52.60
36280;DHT22;22317;47.936;12.742;2023-02-28T06:51:57;-4.30;52.70
36280;DHT22;22317;47.936;12.742;2023-02-28T06:54:23;-4.30;52.80
36280;DHT22;22317;47.936;12.742;2023-02-28T06:56:49;-4.20;52.80
36280;DHT22;22317;47.936;12.742;2023-02-28T06:59:16;-4.10;53.10
36280;DHT22;22317;47.936;12.742;2023-02-28T07:01:42;-4.00;53.20
36280;DHT22;22317;47.936;12.742;2023-02-28T07:04:09;-3.80;53.30
36280;DHT22;22317;47.936;12.742;2023-02-28T07:06:34;-3.80;53.10
36280;DHT22;22317;47.936;12.742;2023-02-28T07:09:01;-3.60;53.40
36280;DHT22;22317;47.936;12.742;2023-02-28T07:11:27;-3.50;53.40
36280;DHT22;22317;47.936;12.742;2023-02-28T07:13:54;-3.40;53.40
36280;DHT22;22317;47.936;12.742;2023-02-28T07:16:21;-3.20;53.50
36280;DHT22;22317;47.936;12.742;2023-02-28T07:18:48;-3.10;53.30
36280;DHT22;22317;47.936;12.742;2023-02-28T07:21:15;-2.90;53.20
36280;DHT22;22317;47.936;12.742;2023-02-28T07:23:41;-2.80;53.10
36280;DHT22;22317;47.936;12.742;2023-02-28T07:26:11;-2.70;53.70
36280;DHT22;22317;47.936;12.742;2023-02-28T07:28:44;-2.50;53.10
36280;DHT22;22317;47.936;12.742;2023-02-28T07:31:11;-2.40;53.00
36280;DHT22;22317;47.936;12.742;2023-02-28T07:33:39;-2.20;53.00
36280;DHT22;22317;47.936;12.742;2023-02-28T07:36:07;-2.00;53.00
36280;DHT22;22317;47.936;12.742;2023-02-28T07:38:37;-2.00;53.00
36280;DHT22;22317;47.936;12.742;2023-02-28T07:41:03;-1.80;53.00
36280;DHT22;22317;47.936;12.742;2023-02-28T07:43:32;-1.70;52.80
36280;DHT22;22317;47.936;12.742;2023-02-28T07:46:03;-1.60;52.60
36280;DHT22;22317;47.936;12.742;2023-02-28T07:48:28;-1.40;52.80
36280;DHT22;22317;47.936;12.742;2023-02-28T07:50:55;-1.30;52.70
36280;DHT22;22317;47.936;12.742;2023-02-28T07:53:21;-1.20;52.70
36280;DHT22;22317;47.936;12.742;2023-02-28T07:55:48;-1.00;52.90
36280;DHT22;22317;47.936;12.742;2023-02-28T07:58:13;-0.80;53.20
36280;DHT22;22317;47.936;12.742;2023-02-28T08:00:39;-0.60;52.80
36280;DHT22;22317;47.936;12.742;2023-02-28T08:03:05;-0.50;52.40
36280;DHT22;22317;47.936;12.742;2023-02-28T08:05:31;-0.50;52.10
36280;DHT22;22317;47.936;12.742;2023-02-28T08:07:57;-0.30;52.10
36280;DHT22;22317;47.936;12.742;2023-02-28T08:10:23;-0.30;52.00
36280;DHT22;22317;47.936;12.742;2023-02-28T08:12:49;-0.20;52.00
36280;DHT22;22317;47.936;12.742;2023-02-28T08:15:15;-0.10;51.90
36280;DHT22;22317;47.936;12.742;2023-02-28T08:17:41;0.00;51.80
36280;DHT22;22317;47.936;12.742;2023-02-28T08:20:07;0.20;51.90
36280;DHT22;22317;47.936;12.742;2023-02-28T08:22:34;0.30;51.90
36280;DHT22;22317;47.936;12.742;2023-02-28T08:25:00;0.50;51.70
36280;DHT22;22317;47.936;12.742;2023-02-28T08:27:25;0.70;51.60
36280;DHT22;22317;47.936;12.742;2023-02-28T08:29:51;0.80;51.40
36280;DHT22;22317;47.936;12.742;2023-02-28T08:32:17;1.00;51.00
36280;DHT22;22317;47.936;12.742;2023-02-28T08:34:42;0.90;50.40
36280;DHT22;22317;47.936;12.742;2023-02-28T08:37:08;0.90;50.20
36280;DHT22;22317;47.936;12.742;2023-02-28T08:39:35;0.90;50.10
36280;DHT22;22317;47.936;12.742;2023-02-28T08:42:02;0.90;49.90
36280;DHT22;22317;47.936;12.742;2023-02-28T08:44:28;0.90;49.50
36280;DHT22;22317;47.936;12.742;2023-02-28T08:46:53;0.90;49.60
36280;DHT22;22317;47.936;12.742;2023-02-28T08:49:19;0.90;49.90
36280;DHT22;22317;47.936;12.742;2023-02-28T08:51:45;1.20;50.10
36280;DHT22;22317;47.936;12.742;2023-02-28T08:54:11;1.30;50.00
36280;DHT22;22317;47.936;12.742;2023-02-28T08:56:41;1.20;49.90
36280;DHT22;22317;47.936;12.742;2023-02-28T08:59:09;1.40;49.80
36280;DHT22;22317;47.936;12.742;2023-02-28T09:01:35;1.40;49.50
36280;DHT22;22317;47.936;12.742;2023-02-28T09:04:02;1.50;49.40
36280;DHT22;22317;47.936;12.742;2023-02-28T09:06:28;1.50;49.30
36280;DHT22;22317;47.936;12.742;2023-02-28T09:08:57;1.60;49.10
36280;DHT22;22317;47.936;12.742;2023-02-28T09:11:24;1.50;48.70
36280;DHT22;22317;47.936;12.742;2023-02-28T09:13:49;1.50;48.50
36280;DHT22;22317;47.936;12.742;2023-02-28T09:16:16;1.50;48.60
36280;DHT22;22317;47.936;12.742;2023-02-28T09:18:43;1.50;48.70
36280;DHT22;22317;47.936;12.742;2023-02-28T09:21:12;1.60;48.80
36280;DHT22;22317;47.936;12.742;2023-02-28T09:23:40;1.60;48.70
36280;DHT22;22317;47.936;12.742;2023-02-28T09:26:06;1.70;48.60
36280;DHT22;22317;47.936;12.742;2023-02-28T09:28:32;1.80;48.30
36280;DHT22;22317;47.936;12.742;2023-02-28T09:30:58;1.80;48.20
36280;DHT22;22317;47.936;12.742;2023-02-28T09:33:24;1.80;48.10
36280;DHT22;22317;47.936;12.742;2023-02-28T09:35:51;1.80;47.90
36280;DHT22;22317;47.936;12.742;2023-02-28T09:38:22;1.70;47.70
36280;DHT22;22317;47.936;12.742;2023-02-28T09:43:22;1.60;47.70
36280;DHT22;22317;47.936;12.742;2023-02-28T09:46:00;1.60;47.70
36280;DHT22;22317;47.936;12.742;2023-02-28T09:48:38;1.70;48.30
36280;DHT22;22317;47.936;12.742;2023-02-28T09:53:41;1.90;48.20
36280;DHT22;22317;47.936;12.742;2023-02-28T09:56:10;2.00;48.20
36280;DHT22;22317;47.936;12.742;2023-02-28T10:01:56;2.40;48.20
36280;DHT22;22317;47.936;12.742;2023-02-28T10:05:07;2.60;48.00
36280;DHT22;22317;47.936;12.742;2023-02-28T10:10:42;2.70;47.10
36280;DHT22;22317;47.936;12.742;2023-02-28T10:15:51;2.90;48.10
36280;DHT22;22317;47.936;12.742;2023-02-28T10:18:24;3.10;47.20
36280;DHT22;22317;47.936;12.742;2023-02-28T10:20:51;4.70;47.90
36280;DHT22;22317;47.936;12.742;2023-02-28T10:26:16;3.60;47.30
36280;DHT22;22317;47.936;12.742;2023-02-28T10:28:43;3.90;47.20
36280;DHT22;22317;47.936;12.742;2023-02-28T10:31:17;4.10;47.20
36280;DHT22;22317;47.936;12.742;2023-02-28T10:33:43;4.30;46.80
36280;DHT22;22317;47.936;12.742;2023-02-28T10:36:16;4.50;46.70
36280;DHT22;22317;47.936;12.742;2023-02-28T10:38:44;4.80;46.50
36280;DHT22;22317;47.936;12.742;2023-02-28T10:41:16;4.90;46.20
36280;DHT22;22317;47.936;12.742;2023-02-28T10:43:43;5.10;45.90
36280;DHT22;22317;47.936;12.742;2023-02-28T10:48:39;5.50;45.50
36280;DHT22;22317;47.936;12.742;2023-02-28T10:51:09;5.70;44.90
36280;DHT22;22317;47.936;12.742;2023-02-28T10:53:55;5.80;44.80
36280;DHT22;22317;47.936;12.742;2023-02-28T10:56:25;6.10;44.40
36280;DHT22;22317;47.936;12.742;2023-02-28T10:59:02;6.10;44.00
36280;DHT22;22317;47.936;12.742;2023-02-28T11:01:43;6.40;44.00
36280;DHT22;22317;47.936;12.742;2023-02-28T11:07:01;7.10;44.00
36280;DHT22;22317;47.936;12.742;2023-02-28T11:09:34;7.40;43.20
36280;DHT22;22317;47.936;12.742;2023-02-28T11:12:05;7.60;42.60
36280;DHT22;22317;47.936;12.742;2023-02-28T11:14:35;7.70;41.90
36280;DHT22;22317;47.936;12.742;2023-02-28T11:17:17;7.90;42.10
36280;DHT22;22317;47.936;12.742;2023-02-28T11:19:46;8.30;41.60
36280;DHT22;22317;47.936;12.742;2023-02-28T11:22:21;8.60;41.60
36280;DHT22;22317;47.936;12.742;2023-02-28T11:24:52;8.90;41.10
36280;DHT22;22317;47.936;12.742;2023-02-28T11:29:58;9.20;39.00
36280;DHT22;22317;47.936;12.742;2023-02-28T11:32:26;9.30;39.20
36280;DHT22;22317;47.936;12.742;2023-02-28T11:37:35;9.70;38.90
36280;DHT22;22317;47.936;12.742;2023-02-28T11:40:05;10.00;38.90
36280;DHT22;22317;47.936;12.742;2023-02-28T11:52:53;11.10;37.50
36280;DHT22;22317;47.936;12.742;2023-02-28T11:55:36;11.40;37.00
36280;DHT22;22317;47.936;12.742;2023-02-28T11:58:14;11.70;35.70
36280;DHT22;22317;47.936;12.742;2023-02-28T12:06:31;12.50;35.20
36280;DHT22;22317;47.936;12.742;2023-02-28T12:09:38;12.80;34.40
36280;DHT22;22317;47.936;12.742;2023-02-28T12:12:21;13.20;34.20
36280;DHT22;22317;47.936;12.742;2023-02-28T12:17:38;14.40;33.30
36280;DHT22;22317;47.936;12.742;2023-02-28T12:20:36;15.00;33.10
36280;DHT22;22317;47.936;12.742;2023-02-28T12:23:25;15.80;31.30
36280;DHT22;22317;47.936;12.742;2023-02-28T12:28:47;17.50;29.50
36280;DHT22;22317;47.936;12.742;2023-02-28T12:31:23;18.20;29.20
36280;DHT22;22317;47.936;12.742;2023-02-28T12:33:53;18.90;28.70
36280;DHT22;22317;47.936;12.742;2023-02-28T12:36:21;19.70;28.30
36280;DHT22;22317;47.936;12.742;2023-02-28T12:38:49;20.40;27.40
36280;DHT22;22317;47.936;12.742;2023-02-28T12:41:20;21.00;26.80
36280;DHT22;22317;47.936;12.742;2023-02-28T12:44:50;21.70;26.10
36280;DHT22;22317;47.936;12.742;2023-02-28T12:47:00;22.30;24.80
36280;DHT22;22317;47.936;12.742;2023-02-28T12:49:33;22.80;24.70
36280;DHT22;22317;47.936;12.742;2023-02-28T12:52:00;23.00;23.90
36280;DHT22;22317;47.936;12.742;2023-02-28T12:54:37;23.20;23.60
36280;DHT22;22317;47.936;12.742;2023-02-28T12:57:15;23.50;23.00
36280;DHT22;22317;47.936;12.742;2023-02-28T12:59:56;23.70;22.60
36280;DHT22;22317;47.936;12.742;2023-02-28T13:08:24;24.00;22.30
36280;DHT22;22317;47.936;12.742;2023-02-28T13:10:53;24.40;21.40
36280;DHT22;22317;47.936;12.742;2023-02-28T13:13:27;24.60;21.80
36280;DHT22;22317;47.936;12.742;2023-02-28T13:16:10;24.80;21.10
36280;DHT22;22317;47.936;12.742;2023-02-28T13:18:39;24.80;20.40
36280;DHT22;22317;47.936;12.742;2023-02-28T13:21:09;24.80;20.60
36280;DHT22;22317;47.936;12.742;2023-02-28T13:26:16;25.00;19.90
36280;DHT22;22317;47.936;12.742;2023-02-28T13:31:19;25.60;19.70
36280;DHT22;22317;47.936;12.742;2023-02-28T13:36:29;26.20;19.30
36280;DHT22;22317;47.936;12.742;2023-02-28T13:39:02;26.50;19.40
36280;DHT22;22317;47.936;12.742;2023-02-28T13:57:59;28.00;17.60
36280;DHT22;22317;47.936;12.742;2023-02-28T14:11:38;28.40;16.90
36280;DHT22;22317;47.936;12.742;2023-02-28T14:14:07;28.50;17.10
36280;DHT22;22317;47.936;12.742;2023-02-28T14:16:41;28.60;16.80
36280;DHT22;22317;47.936;12.742;2023-02-28T14:19:16;28.70;16.20
36280;DHT22;22317;47.936;12.742;2023-02-28T14:30:43;29.30;15.90
36280;DHT22;22317;47.936;12.742;2023-02-28T14:36:12;29.60;15.50
36280;DHT22;22317;47.936;12.742;2023-02-28T14:39:45;29.90;15.40
36280;DHT22;22317;47.936;12.742;2023-02-28T14:41:49;30.10;15.20
36280;DHT22;22317;47.936;12.742;2023-02-28T14:44:21;30.30;15.70
36280;DHT22;22317;47.936;12.742;2023-02-28T14:46:59;30.30;15.00
36280;DHT22;22317;47.936;12.742;2023-02-28T14:49:37;30.10;14.70
36280;DHT22;22317;47.936;12.742;2023-02-28T14:55:05;29.50;14.80
36280;DHT22;22317;47.936;12.742;2023-02-28T14:57:34;29.00;14.90
36280;DHT22;22317;47.936;12.742;2023-02-28T15:02:37;28.40;14.70
36280;DHT22;22317;47.936;12.742;2023-02-28T15:08:03;27.90;14.70
36280;DHT22;22317;47.936;12.742;2023-02-28T15:10:29;27.60;14.70
36280;DHT22;22317;47.936;12.742;2023-02-28T15:13:07;27.30;14.90
36280;DHT22;22317;47.936;12.742;2023-02-28T15:15:58;26.80;14.50
36280;DHT22;22317;47.936;12.742;2023-02-28T15:20:54;25.60;15.10
36280;DHT22;22317;47.936;12.742;2023-02-28T15:23:21;25.10;15.30
36280;DHT22;22317;47.936;12.742;2023-02-28T15:25:48;24.80;15.50
36280;DHT22;22317;47.936;12.742;2023-02-28T15:28:20;24.70;15.80
36280;DHT22;22317;47.936;12.742;2023-02-28T15:30:59;24.50;15.50
36280;DHT22;22317;47.936;12.742;2023-02-28T15:33:33;24.10;15.50
36280;DHT22;22317;47.936;12.742;2023-02-28T15:36:16;23.70;16.10
36280;DHT22;22317;47.936;12.742;2023-02-28T15:38:51;23.50;16.00
36280;DHT22;22317;47.936;12.742;2023-02-28T15:41:31;23.70;16.50
36280;DHT22;22317;47.936;12.742;2023-02-28T15:44:28;23.80;16.20
36280;DHT22;22317;47.936;12.742;2023-02-28T15:47:02;23.60;15.80
36280;DHT22;22317;47.936;12.742;2023-02-28T15:49:38;23.30;15.90
36280;DHT22;22317;47.936;12.742;2023-02-28T15:52:04;23.00;15.90
36280;DHT22;22317;47.936;12.742;2023-02-28T15:54:33;22.80;16.00
36280;DHT22;22317;47.936;12.742;2023-02-28T15:57:21;22.60;16.00
36280;DHT22;22317;47.936;12.742;2023-02-28T16:00:00;22.30;15.80
36280;DHT22;22317;47.936;12.742;2023-02-28T16:02:36;21.60;15.60
36280;DHT22;22317;47.936;12.742;2023-02-28T16:07:36;19.50;15.60
36280;DHT22;22317;47.936;12.742;2023-02-28T16:10:03;18.40;15.90
36280;DHT22;22317;47.936;12.742;2023-02-28T16:12:31;17.40;16.30
36280;DHT22;22317;47.936;12.742;2023-02-28T16:15:06;16.40;16.90
36280;DHT22;22317;47.936;12.742;2023-02-28T16:17:38;15.50;17.40
36280;DHT22;22317;47.936;12.742;2023-02-28T16:22:43;13.80;18.70
36280;DHT22;22317;47.936;12.742;2023-02-28T16:25:14;13.20;19.00
36280;DHT22;22317;47.936;12.742;2023-02-28T16:27:42;12.50;19.60
36280;DHT22;22317;47.936;12.742;2023-02-28T16:30:21;12.00;20.10
36280;DHT22;22317;47.936;12.742;2023-02-28T16:32:48;11.40;20.70
36280;DHT22;22317;47.936;12.742;2023-02-28T16:35:14;10.90;20.90
36280;DHT22;22317;47.936;12.742;2023-02-28T16:37:41;10.50;21.40
36280;DHT22;22317;47.936;12.742;2023-02-28T16:40:13;10.10;21.80
36280;DHT22;22317;47.936;12.742;2023-02-28T16:42:40;9.70;22.30
36280;DHT22;22317;47.936;12.742;2023-02-28T16:45:06;9.30;22.60
36280;DHT22;22317;47.936;12.742;2023-02-28T16:47:36;8.90;22.90
36280;DHT22;22317;47.936;12.742;2023-02-28T16:50:15;8.60;23.30
36280;DHT22;22317;47.936;12.742;2023-02-28T16:52:41;8.30;23.80
36280;DHT22;22317;47.936;12.742;2023-02-28T16:55:08;8.00;24.00
36280;DHT22;22317;47.936;12.742;2023-02-28T16:57:34;7.80;24.40
36280;DHT22;22317;47.936;12.742;2023-02-28T16:59:59;7.50;24.60
36280;DHT22;22317;47.936;12.742;2023-02-28T17:02:25;7.30;25.00
36280;DHT22;22317;47.936;12.742;2023-02-28T17:04:51;7.00;25.30
36280;DHT22;22317;47.936;12.742;2023-02-28T17:07:17;6.80;25.60
36280;DHT22;22317;47.936;12.742;2023-02-28T17:09:44;6.60;25.90
36280;DHT22;22317;47.936;12.742;2023-02-28T17:12:10;6.50;26.20
36280;DHT22;22317;47.936;12.742;2023-02-28T17:14:37;6.30;26.50
36280;DHT22;22317;47.936;12.742;2023-02-28T17:17:05;6.10;26.80
36280;DHT22;22317;47.936;12.742;2023-02-28T17:19:30;6.00;27.20
36280;DHT22;22317;47.936;12.742;2023-02-28T17:22:00;5.80;27.40
36280;DHT22;22317;47.936;12.742;2023-02-28T17:24:26;5.70;27.60
36280;DHT22;22317;47.936;12.742;2023-02-28T17:26:52;5.60;27.80
36280;DHT22;22317;47.936;12.742;2023-02-28T17:29:21;5.50;28.00
36280;DHT22;22317;47.936;12.742;2023-02-28T17:31:47;5.30;28.30
36280;DHT22;22317;47.936;12.742;2023-02-28T17:34:13;5.20;28.40
36280;DHT22;22317;47.936;12.742;2023-02-28T17:36:48;5.20;28.70
36280;DHT22;22317;47.936;12.742;2023-02-28T17:39:15;5.00;28.90
36280;DHT22;22317;47.936;12.742;2023-02-28T17:41:45;4.90;29.10
36280;DHT22;22317;47.936;12.742;2023-02-28T17:44:11;4.80;29.30
36280;DHT22;22317;47.936;12.742;2023-02-28T17:46:36;4.70;29.60
36280;DHT22;22317;47.936;12.742;2023-02-28T17:49:02;4.60;29.80
36280;DHT22;22317;47.936;12.742;2023-02-28T17:51:28;4.60;30.00
36280;DHT22;22317;47.936;12.742;2023-02-28T17:53:54;4.50;30.10
36280;DHT22;22317;47.936;12.742;2023-02-28T17:56:22;4.40;30.30
36280;DHT22;22317;47.936;12.742;2023-02-28T17:58:56;4.30;30.60
36280;DHT22;22317;47.936;12.742;2023-02-28T18:01:23;4.20;31.00
36280;DHT22;22317;47.936;12.742;2023-02-28T18:03:51;4.10;31.10
36280;DHT22;22317;47.936;12.742;2023-02-28T18:06:41;4.10;31.40
36280;DHT22;22317;47.936;12.742;2023-02-28T18:09:20;4.00;32.00
36280;DHT22;22317;47.936;12.742;2023-02-28T18:11:48;3.90;31.90